sensor_id;sensor_type;location;lat;lon;timestamp;P1;durP1;ratioP1;P2;durP2;ratioP2
45356;SDS011;31092;51.924;21.448;2023-07-29T00:01:52;2.17;;;1.33;;
45356;SDS011;31092;51.924;21.448;2023-07-29T00:04:19;1.20;;;1.10;;
45356;SDS011;31092;51.924;21.448;2023-07-29T00:06:45;1.10;;;1.00;;
45356;SDS011;31092;51.924;21.448;2023-07-29T00:09:11;1.38;;;1.10;;
45356;SDS011;31092;51.924;21.448;2023-07-29T00:11:36;1.00;;;1.00;;
45356;SDS011;31092;51.924;21.448;2023-07-29T00:14:02;3.78;;;1.00;;
45356;SDS011;31092;51.924;21.448;2023-07-29T00:16:28;1.05;;;0.95;;
45356;SDS011;31092;51.924;21.448;2023-07-29T00:18:53;0.80;;;0.80;;
45356;SDS011;31092;51.924;21.448;2023-07-29T00:21:19;1.02;;;0.82;;
45356;SDS011;31092;51.924;21.448;2023-07-29T00:23:45;1.63;;;1.52;;
45356;SDS011;31092;51.924;21.448;2023-07-29T00:26:10;2.42;;;1.20;;
45356;SDS011;31092;51.924;21.448;2023-07-29T00:28:46;3.72;;;1.27;;
45356;SDS011;31092;51.924;21.448;2023-07-29T00:31:12;1.45;;;1.13;;
45356;SDS011;31092;51.924;21.448;2023-07-29T00:33:38;1.20;;;1.10;;
45356;SDS011;31092;51.924;21.448;2023-07-29T00:36:03;0.85;;;0.85;;
45356;SDS011;31092;51.924;21.448;2023-07-29T00:38:29;0.80;;;0.80;;
45356;SDS011;31092;51.924;21.448;2023-07-29T00:40:57;0.70;;;0.70;;
45356;SDS011;31092;51.924;21.448;2023-07-29T00:43:24;1.98;;;1.25;;
45356;SDS011;31092;51.924;21.448;2023-07-29T00:45:52;1.05;;;0.95;;
45356;SDS011;31092;51.924;21.448;2023-07-29T00:48:18;0.90;;;0.90;;
45356;SDS011;31092;51.924;21.448;2023-07-29T00:50:44;1.33;;;1.15;;
45356;SDS011;31092;51.924;21.448;2023-07-29T00:53:10;1.02;;;0.98;;
45356;SDS011;31092;51.924;21.448;2023-07-29T00:55:36;1.95;;;1.23;;
45356;SDS011;31092;51.924;21.448;2023-07-29T00:58:02;7.47;;;1.13;;
45356;SDS011;31092;51.924;21.448;2023-07-29T01:00:31;1.52;;;1.42;;
45356;SDS011;31092;51.924;21.448;2023-07-29T01:02:59;2.88;;;0.93;;
45356;SDS011;31092;51.924;21.448;2023-07-29T01:05:32;3.42;;;0.90;;
45356;SDS011;31092;51.924;21.448;2023-07-29T01:08:41;1.13;;;1.10;;
45356;SDS011;31092;51.924;21.448;2023-07-29T01:11:23;1.10;;;1.00;;
45356;SDS011;31092;51.924;21.448;2023-07-29T01:14:21;1.20;;;1.10;;
45356;SDS011;31092;51.924;21.448;2023-07-29T01:17:07;2.15;;;1.30;;
45356;SDS011;31092;51.924;21.448;2023-07-29T01:19:48;1.55;;;1.30;;
45356;SDS011;31092;51.924;21.448;2023-07-29T01:22:25;0.95;;;0.95;;
45356;SDS011;31092;51.924;21.448;2023-07-29T01:24:52;1.35;;;1.25;;
45356;SDS011;31092;51.924;21.448;2023-07-29T01:27:18;1.00;;;1.00;;
45356;SDS011;31092;51.924;21.448;2023-07-29T01:29:53;1.60;;;1.23;;
45356;SDS011;31092;51.924;21.448;2023-07-29T01:32:25;0.93;;;0.93;;
45356;SDS011;31092;51.924;21.448;2023-07-29T01:38:01;0.82;;;0.82;;
45356;SDS011;31092;51.924;21.448;2023-07-29T01:40:30;1.48;;;1.38;;
45356;SDS011;31092;51.924;21.448;2023-07-29T01:42:57;0.90;;;0.90;;
45356;SDS011;31092;51.924;21.448;2023-07-29T01:45:23;0.90;;;0.90;;
45356;SDS011;31092;51.924;21.448;2023-07-29T01:47:53;1.65;;;1.10;;
45356;SDS011;31092;51.924;21.448;2023-07-29T01:50:18;0.82;;;0.82;;
45356;SDS011;31092;51.924;21.448;2023-07-29T01:52:44;1.20;;;1.08;;
45356;SDS011;31092;51.924;21.448;2023-07-29T01:55:10;1.00;;;0.90;;
45356;SDS011;31092;51.924;21.448;2023-07-29T01:57:35;1.00;;;1.00;;
45356;SDS011;31092;51.924;21.448;2023-07-29T02:00:01;1.23;;;1.13;;
45356;SDS011;31092;51.924;21.448;2023-07-29T02:02:29;1.92;;;1.35;;
45356;SDS011;31092;51.924;21.448;2023-07-29T02:04:54;1.00;;;0.88;;
45356;SDS011;31092;51.924;21.448;2023-07-29T02:07:21;0.65;;;0.65;;
45356;SDS011;31092;51.924;21.448;2023-07-29T02:09:46;0.60;;;0.60;;
45356;SDS011;31092;51.924;21.448;2023-07-29T02:12:12;0.98;;;0.80;;
45356;SDS011;31092;51.924;21.448;2023-07-29T02:14:38;0.68;;;0.68;;
45356;SDS011;31092;51.924;21.448;2023-07-29T02:17:04;1.20;;;0.95;;
45356;SDS011;31092;51.924;21.448;2023-07-29T02:19:29;1.67;;;1.15;;
45356;SDS011;31092;51.924;21.448;2023-07-29T02:21:58;2.42;;;1.42;;
45356;SDS011;31092;51.924;21.448;2023-07-29T02:24:23;6.05;;;1.45;;
45356;SDS011;31092;51.924;21.448;2023-07-29T02:26:49;1.40;;;1.30;;
45356;SDS011;31092;51.924;21.448;2023-07-29T02:29:15;1.48;;;1.20;;
45356;SDS011;31092;51.924;21.448;2023-07-29T02:31:40;1.52;;;1.42;;
45356;SDS011;31092;51.924;21.448;2023-07-29T02:34:06;1.80;;;1.42;;
45356;SDS011;31092;51.924;21.448;2023-07-29T02:36:32;2.05;;;1.42;;
45356;SDS011;31092;51.924;21.448;2023-07-29T02:38:57;1.58;;;1.48;;
45356;SDS011;31092;51.924;21.448;2023-07-29T02:41:23;1.92;;;1.20;;
45356;SDS011;31092;51.924;21.448;2023-07-29T02:43:49;1.55;;;1.45;;
45356;SDS011;31092;51.924;21.448;2023-07-29T02:46:15;1.67;;;1.33;;
45356;SDS011;31092;51.924;21.448;2023-07-29T02:49:26;1.63;;;1.30;;
45356;SDS011;31092;51.924;21.448;2023-07-29T02:51:45;1.73;;;1.40;;
45356;SDS011;31092;51.924;21.448;2023-07-29T02:54:11;1.88;;;1.40;;
45356;SDS011;31092;51.924;21.448;2023-07-29T02:56:37;0.93;;;0.93;;
45356;SDS011;31092;51.924;21.448;2023-07-29T02:59:05;1.40;;;1.20;;
45356;SDS011;31092;51.924;21.448;2023-07-29T03:01:31;1.70;;;1.05;;
45356;SDS011;31092;51.924;21.448;2023-07-29T03:04:00;2.70;;;1.35;;
45356;SDS011;31092;51.924;21.448;2023-07-29T03:06:32;1.13;;;1.02;;
45356;SDS011;31092;51.924;21.448;2023-07-29T03:09:00;1.50;;;1.33;;
45356;SDS011;31092;51.924;21.448;2023-07-29T03:11:26;2.03;;;1.70;;
45356;SDS011;31092;51.924;21.448;2023-07-29T03:13:52;1.73;;;1.52;;
45356;SDS011;31092;51.924;21.448;2023-07-29T03:16:23;5.55;;;1.42;;
45356;SDS011;31092;51.924;21.448;2023-07-29T03:18:49;2.13;;;1.50;;
45356;SDS011;31092;51.924;21.448;2023-07-29T03:21:17;1.65;;;1.42;;
45356;SDS011;31092;51.924;21.448;2023-07-29T03:23:43;6.25;;;1.90;;
45356;SDS011;31092;51.924;21.448;2023-07-29T03:26:09;3.05;;;2.03;;
45356;SDS011;31092;51.924;21.448;2023-07-29T03:28:39;2.13;;;1.20;;
45356;SDS011;31092;51.924;21.448;2023-07-29T03:31:07;4.15;;;1.85;;
45356;SDS011;31092;51.924;21.448;2023-07-29T03:33:35;3.53;;;1.88;;
45356;SDS011;31092;51.924;21.448;2023-07-29T03:36:01;3.83;;;2.55;;
45356;SDS011;31092;51.924;21.448;2023-07-29T03:38:27;4.28;;;2.47;;
45356;SDS011;31092;51.924;21.448;2023-07-29T03:40:53;3.40;;;2.13;;
45356;SDS011;31092;51.924;21.448;2023-07-29T03:43:19;10.18;;;3.05;;
45356;SDS011;31092;51.924;21.448;2023-07-29T03:45:45;14.88;;;3.33;;
45356;SDS011;31092;51.924;21.448;2023-07-29T03:48:56;8.00;;;3.60;;
45356;SDS011;31092;51.924;21.448;2023-07-29T03:51:27;6.97;;;4.22;;
45356;SDS011;31092;51.924;21.448;2023-07-29T03:53:53;9.48;;;4.60;;
45356;SDS011;31092;51.924;21.448;2023-07-29T03:56:19;10.90;;;4.78;;
45356;SDS011;31092;51.924;21.448;2023-07-29T03:59:04;10.57;;;5.82;;
45356;SDS011;31092;51.924;21.448;2023-07-29T04:01:30;7.68;;;5.18;;
45356;SDS011;31092;51.924;21.448;2023-07-29T04:03:56;7.32;;;4.22;;
45356;SDS011;31092;51.924;21.448;2023-07-29T04:06:22;8.70;;;5.28;;
45356;SDS011;31092;51.924;21.448;2023-07-29T04:08:48;5.97;;;3.72;;
45356;SDS011;31092;51.924;21.448;2023-07-29T04:11:14;7.10;;;4.60;;
45356;SDS011;31092;51.924;21.448;2023-07-29T04:13:40;6.32;;;3.95;;
45356;SDS011;31092;51.924;21.448;2023-07-29T04:16:05;7.93;;;3.88;;
45356;SDS011;31092;51.924;21.448;2023-07-29T04:18:31;8.25;;;4.70;;
45356;SDS011;31092;51.924;21.448;2023-07-29T04:21:15;5.75;;;3.33;;
45356;SDS011;31092;51.924;21.448;2023-07-29T04:23:41;9.48;;;5.32;;
45356;SDS011;31092;51.924;21.448;2023-07-29T04:26:07;8.55;;;4.75;;
45356;SDS011;31092;51.924;21.448;2023-07-29T04:28:35;7.60;;;4.68;;
45356;SDS011;31092;51.924;21.448;2023-07-29T04:31:01;8.90;;;4.05;;
45356;SDS011;31092;51.924;21.448;2023-07-29T04:33:26;7.95;;;3.78;;
45356;SDS011;31092;51.924;21.448;2023-07-29T04:39:23;7.65;;;3.53;;
45356;SDS011;31092;51.924;21.448;2023-07-29T04:41:48;8.13;;;4.40;;
45356;SDS011;31092;51.924;21.448;2023-07-29T04:44:14;5.85;;;3.88;;
45356;SDS011;31092;51.924;21.448;2023-07-29T04:46:42;6.60;;;4.10;;
45356;SDS011;31092;51.924;21.448;2023-07-29T04:49:08;6.55;;;3.92;;
45356;SDS011;31092;51.924;21.448;2023-07-29T04:51:34;9.18;;;4.57;;
45356;SDS011;31092;51.924;21.448;2023-07-29T04:54:00;10.73;;;5.68;;
45356;SDS011;31092;51.924;21.448;2023-07-29T04:56:36;10.77;;;6.15;;
45356;SDS011;31092;51.924;21.448;2023-07-29T04:59:01;8.48;;;4.60;;
45356;SDS011;31092;51.924;21.448;2023-07-29T05:01:33;11.65;;;4.57;;
45356;SDS011;31092;51.924;21.448;2023-07-29T05:03:58;10.45;;;5.28;;
45356;SDS011;31092;51.924;21.448;2023-07-29T05:06:24;6.97;;;4.13;;
45356;SDS011;31092;51.924;21.448;2023-07-29T05:08:50;8.60;;;4.55;;
45356;SDS011;31092;51.924;21.448;2023-07-29T05:11:15;5.43;;;3.42;;
45356;SDS011;31092;51.924;21.448;2023-07-29T05:13:41;6.78;;;4.28;;
45356;SDS011;31092;51.924;21.448;2023-07-29T05:16:09;10.98;;;6.15;;
45356;SDS011;31092;51.924;21.448;2023-07-29T05:18:34;10.80;;;5.60;;
45356;SDS011;31092;51.924;21.448;2023-07-29T05:21:11;9.98;;;6.80;;
45356;SDS011;31092;51.924;21.448;2023-07-29T05:23:39;12.57;;;6.32;;
45356;SDS011;31092;51.924;21.448;2023-07-29T05:26:05;10.70;;;6.93;;
45356;SDS011;31092;51.924;21.448;2023-07-29T05:28:30;8.35;;;5.95;;
45356;SDS011;31092;51.924;21.448;2023-07-29T05:30:56;9.38;;;6.38;;
45356;SDS011;31092;51.924;21.448;2023-07-29T05:33:22;11.43;;;6.65;;
45356;SDS011;31092;51.924;21.448;2023-07-29T05:35:48;10.02;;;5.75;;
45356;SDS011;31092;51.924;21.448;2023-07-29T05:38:13;9.57;;;6.22;;
45356;SDS011;31092;51.924;21.448;2023-07-29T05:40:39;8.98;;;5.38;;
45356;SDS011;31092;51.924;21.448;2023-07-29T05:43:12;7.32;;;4.85;;
45356;SDS011;31092;51.924;21.448;2023-07-29T05:45:39;7.55;;;5.00;;
45356;SDS011;31092;51.924;21.448;2023-07-29T05:48:05;8.25;;;5.07;;
45356;SDS011;31092;51.924;21.448;2023-07-29T05:50:31;9.05;;;4.78;;
45356;SDS011;31092;51.924;21.448;2023-07-29T05:52:57;9.18;;;5.20;;
45356;SDS011;31092;51.924;21.448;2023-07-29T05:55:31;8.00;;;5.85;;
45356;SDS011;31092;51.924;21.448;2023-07-29T05:57:56;9.85;;;6.25;;
45356;SDS011;31092;51.924;21.448;2023-07-29T06:00:22;9.75;;;6.80;;
45356;SDS011;31092;51.924;21.448;2023-07-29T06:02:51;12.23;;;5.55;;
45356;SDS011;31092;51.924;21.448;2023-07-29T06:05:16;11.63;;;5.68;;
45356;SDS011;31092;51.924;21.448;2023-07-29T06:07:45;10.80;;;5.05;;
45356;SDS011;31092;51.924;21.448;2023-07-29T06:10:12;6.43;;;5.22;;
45356;SDS011;31092;51.924;21.448;2023-07-29T06:12:42;8.85;;;5.43;;
45356;SDS011;31092;51.924;21.448;2023-07-29T06:15:08;6.65;;;4.70;;
45356;SDS011;31092;51.924;21.448;2023-07-29T06:17:34;7.82;;;5.00;;
45356;SDS011;31092;51.924;21.448;2023-07-29T06:20:00;5.90;;;4.43;;
45356;SDS011;31092;51.924;21.448;2023-07-29T06:22:26;12.45;;;4.78;;
45356;SDS011;31092;51.924;21.448;2023-07-29T06:24:51;8.45;;;5.72;;
45356;SDS011;31092;51.924;21.448;2023-07-29T06:30:20;7.88;;;5.10;;
45356;SDS011;31092;51.924;21.448;2023-07-29T06:32:45;6.22;;;4.60;;
45356;SDS011;31092;51.924;21.448;2023-07-29T06:35:11;7.03;;;4.40;;
45356;SDS011;31092;51.924;21.448;2023-07-29T06:37:37;9.23;;;4.90;;
45356;SDS011;31092;51.924;21.448;2023-07-29T06:40:05;6.45;;;4.03;;
45356;SDS011;31092;51.924;21.448;2023-07-29T06:42:31;10.63;;;5.85;;
45356;SDS011;31092;51.924;21.448;2023-07-29T06:45:11;9.40;;;4.93;;
45356;SDS011;31092;51.924;21.448;2023-07-29T06:47:37;9.68;;;4.85;;
45356;SDS011;31092;51.924;21.448;2023-07-29T06:50:03;5.85;;;4.13;;
45356;SDS011;31092;51.924;21.448;2023-07-29T06:52:29;6.95;;;5.30;;
45356;SDS011;31092;51.924;21.448;2023-07-29T06:55:15;8.90;;;5.00;;
45356;SDS011;31092;51.924;21.448;2023-07-29T06:57:40;6.50;;;5.07;;
45356;SDS011;31092;51.924;21.448;2023-07-29T07:00:06;6.05;;;4.85;;
45356;SDS011;31092;51.924;21.448;2023-07-29T07:02:37;4.63;;;3.50;;
45356;SDS011;31092;51.924;21.448;2023-07-29T07:05:06;8.68;;;4.40;;
45356;SDS011;31092;51.924;21.448;2023-07-29T07:07:39;5.78;;;4.25;;
45356;SDS011;31092;51.924;21.448;2023-07-29T07:10:04;4.80;;;4.13;;
45356;SDS011;31092;51.924;21.448;2023-07-29T07:12:33;4.22;;;3.83;;
45356;SDS011;31092;51.924;21.448;2023-07-29T07:14:59;5.07;;;4.25;;
45356;SDS011;31092;51.924;21.448;2023-07-29T07:17:26;4.13;;;3.55;;
45356;SDS011;31092;51.924;21.448;2023-07-29T07:19:51;6.45;;;3.80;;
45356;SDS011;31092;51.924;21.448;2023-07-29T07:22:17;4.90;;;3.65;;
45356;SDS011;31092;51.924;21.448;2023-07-29T07:24:42;4.50;;;4.10;;
45356;SDS011;31092;51.924;21.448;2023-07-29T07:27:09;6.22;;;5.07;;
45356;SDS011;31092;51.924;21.448;2023-07-29T07:29:34;5.10;;;4.38;;
45356;SDS011;31092;51.924;21.448;2023-07-29T07:32:00;7.32;;;5.50;;
45356;SDS011;31092;51.924;21.448;2023-07-29T07:34:26;5.85;;;5.25;;
45356;SDS011;31092;51.924;21.448;2023-07-29T07:36:52;5.95;;;4.70;;
45356;SDS011;31092;51.924;21.448;2023-07-29T07:39:17;5.22;;;4.13;;
45356;SDS011;31092;51.924;21.448;2023-07-29T07:41:43;3.88;;;3.55;;
45356;SDS011;31092;51.924;21.448;2023-07-29T07:47:11;2.95;;;2.65;;
45356;SDS011;31092;51.924;21.448;2023-07-29T07:49:38;4.32;;;2.83;;
45356;SDS011;31092;51.924;21.448;2023-07-29T07:52:14;3.17;;;2.88;;
45356;SDS011;31092;51.924;21.448;2023-07-29T07:54:40;2.55;;;2.35;;
45356;SDS011;31092;51.924;21.448;2023-07-29T07:57:06;2.25;;;2.05;;
45356;SDS011;31092;51.924;21.448;2023-07-29T07:59:31;3.70;;;3.40;;
45356;SDS011;31092;51.924;21.448;2023-07-29T08:01:57;3.17;;;2.83;;
45356;SDS011;31092;51.924;21.448;2023-07-29T08:04:22;2.90;;;2.70;;
45356;SDS011;31092;51.924;21.448;2023-07-29T08:06:48;2.65;;;2.40;;
45356;SDS011;31092;51.924;21.448;2023-07-29T08:09:13;2.80;;;2.60;;
45356;SDS011;31092;51.924;21.448;2023-07-29T08:11:40;6.43;;;3.10;;
45356;SDS011;31092;51.924;21.448;2023-07-29T08:14:05;3.28;;;3.08;;
45356;SDS011;31092;51.924;21.448;2023-07-29T08:16:31;2.45;;;2.22;;
45356;SDS011;31092;51.924;21.448;2023-07-29T08:18:56;2.45;;;2.25;;
45356;SDS011;31092;51.924;21.448;2023-07-29T08:21:22;2.33;;;2.00;;
45356;SDS011;31092;51.924;21.448;2023-07-29T08:23:47;1.80;;;1.70;;
45356;SDS011;31092;51.924;21.448;2023-07-29T08:26:14;2.70;;;1.90;;
45356;SDS011;31092;51.924;21.448;2023-07-29T08:28:39;1.83;;;1.73;;
45356;SDS011;31092;51.924;21.448;2023-07-29T08:34:26;1.90;;;1.75;;
45356;SDS011;31092;51.924;21.448;2023-07-29T08:36:52;1.77;;;1.50;;
45356;SDS011;31092;51.924;21.448;2023-07-29T08:39:17;1.65;;;1.55;;
45356;SDS011;31092;51.924;21.448;2023-07-29T08:41:54;1.30;;;1.20;;
45356;SDS011;31092;51.924;21.448;2023-07-29T08:44:26;1.60;;;1.50;;
45356;SDS011;31092;51.924;21.448;2023-07-29T08:46:55;1.52;;;1.30;;
45356;SDS011;31092;51.924;21.448;2023-07-29T08:49:22;1.70;;;1.60;;
45356;SDS011;31092;51.924;21.448;2023-07-29T08:51:49;2.25;;;2.08;;
45356;SDS011;31092;51.924;21.448;2023-07-29T08:54:18;2.50;;;1.60;;
45356;SDS011;31092;51.924;21.448;2023-07-29T08:56:44;1.63;;;1.52;;
45356;SDS011;31092;51.924;21.448;2023-07-29T08:59:10;1.88;;;1.77;;
45356;SDS011;31092;51.924;21.448;2023-07-29T09:01:40;1.50;;;1.40;;
45356;SDS011;31092;51.924;21.448;2023-07-29T09:04:06;1.70;;;1.60;;
45356;SDS011;31092;51.924;21.448;2023-07-29T09:06:32;1.70;;;1.60;;
45356;SDS011;31092;51.924;21.448;2023-07-29T09:08:59;2.08;;;1.85;;
45356;SDS011;31092;51.924;21.448;2023-07-29T09:11:25;1.85;;;1.75;;
45356;SDS011;31092;51.924;21.448;2023-07-29T09:13:51;1.50;;;1.40;;
45356;SDS011;31092;51.924;21.448;2023-07-29T09:16:17;1.95;;;1.55;;
45356;SDS011;31092;51.924;21.448;2023-07-29T09:18:45;1.70;;;1.60;;
45356;SDS011;31092;51.924;21.448;2023-07-29T09:21:24;1.52;;;1.42;;
45356;SDS011;31092;51.924;21.448;2023-07-29T09:23:52;1.70;;;1.60;;
45356;SDS011;31092;51.924;21.448;2023-07-29T09:26:27;1.40;;;1.30;;
45356;SDS011;31092;51.924;21.448;2023-07-29T09:28:54;1.35;;;1.25;;
45356;SDS011;31092;51.924;21.448;2023-07-29T09:31:22;1.50;;;1.40;;
45356;SDS011;31092;51.924;21.448;2023-07-29T09:33:49;1.45;;;1.35;;
45356;SDS011;31092;51.924;21.448;2023-07-29T09:36:20;1.40;;;1.30;;
45356;SDS011;31092;51.924;21.448;2023-07-29T09:38:46;1.88;;;1.70;;
45356;SDS011;31092;51.924;21.448;2023-07-29T09:41:12;2.08;;;1.88;;
45356;SDS011;31092;51.924;21.448;2023-07-29T09:43:39;1.77;;;1.67;;
45356;SDS011;31092;51.924;21.448;2023-07-29T09:46:05;1.58;;;1.48;;
45356;SDS011;31092;51.924;21.448;2023-07-29T09:48:34;1.30;;;1.30;;
45356;SDS011;31092;51.924;21.448;2023-07-29T09:54:22;1.40;;;1.30;;
45356;SDS011;31092;51.924;21.448;2023-07-29T09:56:47;1.55;;;1.45;;
45356;SDS011;31092;51.924;21.448;2023-07-29T09:59:13;1.50;;;1.30;;
45356;SDS011;31092;51.924;21.448;2023-07-29T10:01:43;1.80;;;1.70;;
45356;SDS011;31092;51.924;21.448;2023-07-29T10:04:09;1.80;;;1.70;;
45356;SDS011;31092;51.924;21.448;2023-07-29T10:06:36;1.60;;;1.50;;
45356;SDS011;31092;51.924;21.448;2023-07-29T10:09:02;1.80;;;1.70;;
45356;SDS011;31092;51.924;21.448;2023-07-29T10:11:29;1.40;;;1.30;;
45356;SDS011;31092;51.924;21.448;2023-07-29T10:13:56;1.75;;;1.30;;
45356;SDS011;31092;51.924;21.448;2023-07-29T10:16:22;2.33;;;1.20;;
45356;SDS011;31092;51.924;21.448;2023-07-29T10:18:49;3.80;;;1.23;;
45356;SDS011;31092;51.924;21.448;2023-07-29T10:21:17;1.58;;;1.48;;
45356;SDS011;31092;51.924;21.448;2023-07-29T10:23:43;1.40;;;1.30;;
45356;SDS011;31092;51.924;21.448;2023-07-29T10:26:14;2.22;;;1.50;;
45356;SDS011;31092;51.924;21.448;2023-07-29T10:28:46;1.80;;;1.70;;
45356;SDS011;31092;51.924;21.448;2023-07-29T10:31:13;2.20;;;2.00;;
45356;SDS011;31092;51.924;21.448;2023-07-29T10:33:43;1.83;;;1.73;;
45356;SDS011;31092;51.924;21.448;2023-07-29T10:36:10;1.80;;;1.70;;
45356;SDS011;31092;51.924;21.448;2023-07-29T10:38:37;1.88;;;1.50;;
45356;SDS011;31092;51.924;21.448;2023-07-29T10:41:03;1.60;;;1.50;;
45356;SDS011;31092;51.924;21.448;2023-07-29T10:43:32;2.78;;;1.55;;
45356;SDS011;31092;51.924;21.448;2023-07-29T10:46:14;1.55;;;1.30;;
45356;SDS011;31092;51.924;21.448;2023-07-29T10:48:42;1.45;;;1.35;;
45356;SDS011;31092;51.924;21.448;2023-07-29T10:51:28;1.48;;;1.38;;
45356;SDS011;31092;51.924;21.448;2023-07-29T10:53:58;1.42;;;1.33;;
45356;SDS011;31092;51.924;21.448;2023-07-29T10:56:42;2.25;;;1.50;;
45356;SDS011;31092;51.924;21.448;2023-07-29T11:01:38;1.30;;;1.20;;
45356;SDS011;31092;51.924;21.448;2023-07-29T11:09:42;1.55;;;1.45;;
45356;SDS011;31092;51.924;21.448;2023-07-29T11:17:45;1.35;;;1.25;;
45356;SDS011;31092;51.924;21.448;2023-07-29T11:20:15;1.45;;;1.35;;
45356;SDS011;31092;51.924;21.448;2023-07-29T11:22:42;1.92;;;1.55;;
45356;SDS011;31092;51.924;21.448;2023-07-29T11:25:09;1.25;;;1.15;;
45356;SDS011;31092;51.924;21.448;2023-07-29T11:27:36;2.25;;;1.30;;
45356;SDS011;31092;51.924;21.448;2023-07-29T11:30:03;0.88;;;0.88;;
45356;SDS011;31092;51.924;21.448;2023-07-29T11:32:36;1.40;;;1.25;;
45356;SDS011;31092;51.924;21.448;2023-07-29T11:35:07;2.03;;;1.92;;
45356;SDS011;31092;51.924;21.448;2023-07-29T11:39:59;1.20;;;1.10;;
45356;SDS011;31092;51.924;21.448;2023-07-29T11:42:26;1.20;;;1.20;;
45356;SDS011;31092;51.924;21.448;2023-07-29T11:44:52;1.77;;;1.15;;
45356;SDS011;31092;51.924;21.448;2023-07-29T11:47:17;1.10;;;1.00;;
45356;SDS011;31092;51.924;21.448;2023-07-29T11:49:43;1.33;;;1.23;;
45356;SDS011;31092;51.924;21.448;2023-07-29T11:52:09;1.15;;;1.15;;
45356;SDS011;31092;51.924;21.448;2023-07-29T11:54:35;1.05;;;0.95;;
45356;SDS011;31092;51.924;21.448;2023-07-29T11:57:03;3.55;;;1.27;;
45356;SDS011;31092;51.924;21.448;2023-07-29T11:59:33;1.42;;;1.33;;
45356;SDS011;31092;51.924;21.448;2023-07-29T12:02:07;1.30;;;1.05;;
45356;SDS011;31092;51.924;21.448;2023-07-29T12:04:36;0.90;;;0.90;;
45356;SDS011;31092;51.924;21.448;2023-07-29T12:07:03;1.40;;;1.10;;
45356;SDS011;31092;51.924;21.448;2023-07-29T12:09:29;1.25;;;1.10;;
45356;SDS011;31092;51.924;21.448;2023-07-29T12:11:55;1.73;;;1.20;;
45356;SDS011;31092;51.924;21.448;2023-07-29T12:14:21;1.42;;;1.33;;
45356;SDS011;31092;51.924;21.448;2023-07-29T12:16:50;1.20;;;1.10;;
45356;SDS011;31092;51.924;21.448;2023-07-29T12:19:17;0.95;;;0.95;;
45356;SDS011;31092;51.924;21.448;2023-07-29T12:21:43;3.22;;;0.80;;
45356;SDS011;31092;51.924;21.448;2023-07-29T12:24:09;1.25;;;1.15;;
45356;SDS011;31092;51.924;21.448;2023-07-29T12:26:37;1.15;;;0.90;;
45356;SDS011;31092;51.924;21.448;2023-07-29T12:29:15;1.40;;;1.30;;
45356;SDS011;31092;51.924;21.448;2023-07-29T12:31:42;1.40;;;1.30;;
45356;SDS011;31092;51.924;21.448;2023-07-29T12:34:08;3.10;;;1.10;;
45356;SDS011;31092;51.924;21.448;2023-07-29T12:36:41;0.90;;;0.90;;
45356;SDS011;31092;51.924;21.448;2023-07-29T12:39:42;1.00;;;1.00;;
45356;SDS011;31092;51.924;21.448;2023-07-29T12:42:07;1.23;;;0.90;;
45356;SDS011;31092;51.924;21.448;2023-07-29T12:44:33;1.27;;;0.95;;
45356;SDS011;31092;51.924;21.448;2023-07-29T12:47:01;0.85;;;0.82;;
45356;SDS011;31092;51.924;21.448;2023-07-29T12:49:29;1.05;;;0.95;;
45356;SDS011;31092;51.924;21.448;2023-07-29T12:51:57;1.40;;;1.30;;
45356;SDS011;31092;51.924;21.448;2023-07-29T12:54:23;0.80;;;0.80;;
45356;SDS011;31092;51.924;21.448;2023-07-29T12:56:48;1.45;;;1.13;;
45356;SDS011;31092;51.924;21.448;2023-07-29T12:59:14;1.85;;;1.70;;
45356;SDS011;31092;51.924;21.448;2023-07-29T13:01:40;0.90;;;0.90;;
45356;SDS011;31092;51.924;21.448;2023-07-29T13:04:05;1.05;;;0.95;;
45356;SDS011;31092;51.924;21.448;2023-07-29T13:06:31;0.85;;;0.85;;
45356;SDS011;31092;51.924;21.448;2023-07-29T13:08:56;0.90;;;0.90;;
45356;SDS011;31092;51.924;21.448;2023-07-29T13:11:22;0.85;;;0.85;;
45356;SDS011;31092;51.924;21.448;2023-07-29T13:13:47;1.17;;;0.98;;
45356;SDS011;31092;51.924;21.448;2023-07-29T13:16:13;1.35;;;0.70;;
45356;SDS011;31092;51.924;21.448;2023-07-29T13:18:39;1.17;;;0.98;;
45356;SDS011;31092;51.924;21.448;2023-07-29T13:21:05;0.90;;;0.90;;
45356;SDS011;31092;51.924;21.448;2023-07-29T13:23:30;0.82;;;0.82;;
45356;SDS011;31092;51.924;21.448;2023-07-29T13:25:56;1.00;;;0.95;;
45356;SDS011;31092;51.924;21.448;2023-07-29T13:28:23;0.95;;;0.85;;
45356;SDS011;31092;51.924;21.448;2023-07-29T13:30:49;1.20;;;1.10;;
45356;SDS011;31092;51.924;21.448;2023-07-29T13:33:15;0.95;;;0.95;;
45356;SDS011;31092;51.924;21.448;2023-07-29T13:35:40;1.23;;;1.13;;
45356;SDS011;31092;51.924;21.448;2023-07-29T13:38:06;1.60;;;0.73;;
45356;SDS011;31092;51.924;21.448;2023-07-29T13:40:31;0.98;;;0.90;;
45356;SDS011;31092;51.924;21.448;2023-07-29T13:42:57;1.10;;;1.00;;
45356;SDS011;31092;51.924;21.448;2023-07-29T13:45:22;1.50;;;1.10;;
45356;SDS011;31092;51.924;21.448;2023-07-29T13:47:48;1.10;;;0.93;;
45356;SDS011;31092;51.924;21.448;2023-07-29T13:50:15;0.90;;;0.85;;
45356;SDS011;31092;51.924;21.448;2023-07-29T13:52:41;1.15;;;1.05;;
45356;SDS011;31092;51.924;21.448;2023-07-29T13:55:06;1.20;;;1.10;;
45356;SDS011;31092;51.924;21.448;2023-07-29T13:57:32;1.42;;;1.20;;
45356;SDS011;31092;51.924;21.448;2023-07-29T13:59:58;1.23;;;1.10;;
45356;SDS011;31092;51.924;21.448;2023-07-29T14:02:24;0.80;;;0.80;;
45356;SDS011;31092;51.924;21.448;2023-07-29T14:04:51;1.40;;;1.10;;
45356;SDS011;31092;51.924;21.448;2023-07-29T14:07:17;1.40;;;1.30;;
45356;SDS011;31092;51.924;21.448;2023-07-29T14:09:42;1.60;;;1.02;;
45356;SDS011;31092;51.924;21.448;2023-07-29T14:12:08;1.20;;;1.10;;
45356;SDS011;31092;51.924;21.448;2023-07-29T14:14:37;1.38;;;1.10;;
45356;SDS011;31092;51.924;21.448;2023-07-29T14:17:03;2.38;;;1.00;;
45356;SDS011;31092;51.924;21.448;2023-07-29T14:19:29;1.85;;;1.00;;
45356;SDS011;31092;51.924;21.448;2023-07-29T14:21:54;1.13;;;1.13;;
45356;SDS011;31092;51.924;21.448;2023-07-29T14:24:20;0.85;;;0.85;;
45356;SDS011;31092;51.924;21.448;2023-07-29T14:26:46;0.70;;;0.70;;
45356;SDS011;31092;51.924;21.448;2023-07-29T14:29:12;1.08;;;1.08;;
45356;SDS011;31092;51.924;21.448;2023-07-29T14:31:37;1.20;;;1.10;;
45356;SDS011;31092;51.924;21.448;2023-07-29T14:34:03;1.40;;;1.30;;
45356;SDS011;31092;51.924;21.448;2023-07-29T14:36:28;1.08;;;1.08;;
45356;SDS011;31092;51.924;21.448;2023-07-29T14:38:53;0.82;;;0.80;;
45356;SDS011;31092;51.924;21.448;2023-07-29T14:41:19;0.93;;;0.90;;
45356;SDS011;31092;51.924;21.448;2023-07-29T14:43:44;1.35;;;1.23;;
45356;SDS011;31092;51.924;21.448;2023-07-29T14:46:10;1.25;;;1.05;;
45356;SDS011;31092;51.924;21.448;2023-07-29T14:48:35;1.10;;;0.80;;
45356;SDS011;31092;51.924;21.448;2023-07-29T14:51:01;1.00;;;0.90;;
45356;SDS011;31092;51.924;21.448;2023-07-29T14:53:26;1.00;;;1.00;;
45356;SDS011;31092;51.924;21.448;2023-07-29T14:55:52;1.00;;;1.00;;
45356;SDS011;31092;51.924;21.448;2023-07-29T14:58:17;1.00;;;1.00;;
45356;SDS011;31092;51.924;21.448;2023-07-29T15:00:43;0.93;;;0.93;;
45356;SDS011;31092;51.924;21.448;2023-07-29T15:03:08;1.17;;;1.08;;
45356;SDS011;31092;51.924;21.448;2023-07-29T15:05:34;1.10;;;1.10;;
45356;SDS011;31092;51.924;21.448;2023-07-29T15:08:00;0.98;;;0.98;;
45356;SDS011;31092;51.924;21.448;2023-07-29T15:10:25;1.10;;;1.10;;
45356;SDS011;31092;51.924;21.448;2023-07-29T15:12:51;0.80;;;0.80;;